Time;durP1;ratioP1;P1;durP2;ratioP2;P2;SDS_P1;SDS_P2;PMS_P1;PMS_P2;Temp;Humidity;BMP_temperature;BMP_pressure;BME280_temperature;BME280_humidity;BME280_pressure;Samples;Min_cycle;Max_cycle;Signal;HPM_P1;HPM_P2
2022/01/29 00:02:12;;;;;;;6.30;3.08;;;2.40;96.50;;;;;;5062499;28;20049;-81
2022/01/29 00:08:13;;;;;;;7.47;3.25;;;2.30;96.40;;;;;;5001203;28;20054;-81
2022/01/29 00:11:19;;;;;;;7.85;3.03;;;2.40;96.50;;;;;;5014204;28;20096;-81
2022/01/29 00:14:08;;;;;;;5.57;3.30;;;2.40;96.50;;;;;;4982239;28;20432;-81
2022/01/29 00:17:00;;;;;;;7.35;3.42;;;2.40;95.90;;;;;;5049263;28;20037;-81
2022/01/29 00:26:28;;;;;;;10.55;3.53;;;2.40;96.10;;;;;;5059687;28;20021;-80
2022/01/29 00:29:39;;;;;;;5.70;3.30;;;2.30;96.00;;;;;;5063001;28;20543;-80
2022/01/29 00:32:35;;;;;;;6.95;3.20;;;2.30;96.10;;;;;;5063664;28;20021;-81
2022/01/29 00:35:32;;;;;;;7.55;3.58;;;2.30;96.20;;;;;;5045571;28;20092;-80
2022/01/29 00:38:16;;;;;;;5.72;2.85;;;2.30;96.20;;;;;;4984540;28;20111;-81
2022/01/29 00:45:08;;;;;;;7.03;3.42;;;2.30;96.30;;;;;;4987450;28;20050;-81
2022/01/29 00:48:16;;;;;;;6.10;3.42;;;2.30;96.20;;;;;;4916657;29;20041;-80
2022/01/29 00:51:39;;;;;;;6.13;3.92;;;2.30;96.00;;;;;;4918037;29;20068;-80
2022/01/29 00:55:00;;;;;;;6.82;4.03;;;2.30;96.10;;;;;;4976325;28;20395;-80
2022/01/29 01:04:36;;;;;;;;;;;;;;;;;;;;;
2022/01/29 01:07:26;;;;;;;5.82;3.45;;;2.00;96.60;;;;;;5041960;28;20160;-82
2022/01/29 01:10:16;;;;;;;8.60;3.88;;;2.00;96.80;;;;;;5041628;28;20030;-81
2022/01/29 01:20:39;;;;;;;6.55;3.45;;;2.00;96.90;;;;;;4980287;28;20159;-81
2022/01/29 01:26:32;;;;;;;6.75;3.25;;;1.90;97.10;;;;;;4981229;28;20110;-80
2022/01/29 01:29:22;;;;;;;6.65;3.38;;;2.00;97.20;;;;;;4965301;28;20128;-80
2022/01/29 01:32:26;;;;;;;10.35;4.28;;;2.00;97.20;;;;;;5033536;28;20040;-81
2022/01/29 01:35:40;;;;;;;6.47;3.22;;;2.00;97.10;;;;;;5043913;28;20080;-81
2022/01/29 01:38:55;;;;;;;9.38;4.38;;;2.10;97.20;;;;;;5042711;28;20025;-82
2022/01/29 01:41:35;;;;;;;5.93;3.78;;;2.10;97.10;;;;;;5037490;28;20034;-81
2022/01/29 01:45:01;;;;;;;;;;;;;;;;;;;;;
2022/01/29 01:54:15;;;;;;;5.85;3.70;;;2.20;96.60;;;;;;4962475;28;20086;-82
2022/01/29 01:57:04;;;;;;;;;;;;;;;;;;;;;
2022/01/29 01:59:44;;;;;;;6.80;4.30;;;2.20;96.40;;;;;;5046738;28;20108;-80
2022/01/29 02:02:27;;;;;;;7.20;3.63;;;2.20;96.10;;;;;;5046533;28;20047;-81
2022/01/29 02:11:30;;;;;;;5.10;3.35;;;2.20;96.20;;;;;;5066035;28;20059;-81
2022/01/29 02:14:29;;;;;;;8.52;3.25;;;2.20;96.30;;;;;;5047047;28;20028;-81
2022/01/29 02:17:25;;;;;;;7.65;3.92;;;2.20;96.30;;;;;;5047262;28;20033;-82
2022/01/29 02:24:15;;;;;;;;;;;;;;;;;;;;;
2022/01/29 02:27:27;;;;;;;10.27;3.83;;;2.30;95.80;;;;;;5064931;28;20100;-81
2022/01/29 02:30:47;;;;;;;9.65;4.07;;;2.20;95.80;;;;;;5031428;28;20527;-82
2022/01/29 02:33:56;;;;;;;5.93;3.08;;;2.20;96.10;;;;;;5060500;28;20109;-80
2022/01/29 02:36:42;;;;;;;8.23;3.40;;;2.20;96.10;;;;;;5045853;28;20029;-81
2022/01/29 02:39:42;;;;;;;6.65;3.05;;;2.20;96.30;;;;;;5047017;28;20025;-80
2022/01/29 02:42:59;;;;;;;8.82;4.03;;;2.20;96.10;;;;;;5060355;28;20037;-81
2022/01/29 02:45:52;;;;;;;4.30;3.08;;;2.30;96.00;;;;;;5063669;28;20025;-81
2022/01/29 02:49:07;;;;;;;5.70;3.15;;;2.20;95.90;;;;;;4964986;28;20027;-81
2022/01/29 02:51:45;;;;;;;7.15;4.20;;;2.20;95.80;;;;;;4997314;28;20039;-80
2022/01/29 02:54:34;;;;;;;6.57;3.95;;;2.20;95.70;;;;;;5064737;28;20017;-80
2022/01/29 03:00:49;;;;;;;;;;;;;;;;;;;;;
2022/01/29 03:03:56;;;;;;;5.53;3.20;;;2.10;95.80;;;;;;5066141;28;20077;-81
2022/01/29 03:07:16;;;;;;;5.68;3.08;;;2.10;95.80;;;;;;5071447;28;20092;-80
2022/01/29 03:09:53;;;;;;;5.40;3.53;;;2.10;95.70;;;;;;5074021;28;20025;-82
2022/01/29 03:12:34;;;;;;;8.48;3.40;;;2.10;95.60;;;;;;5056175;28;20028;-81
2022/01/29 03:15:30;;;;;;;5.00;2.88;;;2.10;95.70;;;;;;5054329;28;20076;-81
2022/01/29 03:18:00;;;;;;;6.90;3.70;;;2.00;95.80;;;;;;5042023;28;20104;-80
2022/01/29 03:24:26;;;;;;;8.80;4.00;;;1.90;95.90;;;;;;5064089;28;20051;-81
2022/01/29 03:26:57;;;;;;;5.40;3.03;;;1.80;96.00;;;;;;5045898;28;20044;-81
2022/01/29 03:29:54;;;;;;;8.52;3.40;;;1.80;96.00;;;;;;5045208;28;20119;-82
2022/01/29 03:32:33;;;;;;;6.75;3.20;;;1.80;96.00;;;;;;5062742;28;20044;-81
2022/01/29 03:35:20;;;;;;;7.45;3.28;;;1.80;96.10;;;;;;5045422;28;20048;-81
2022/01/29 03:37:54;;;;;;;9.73;3.63;;;1.80;96.20;;;;;;5065025;28;20025;-81
2022/01/29 03:41:00;;;;;;;6.85;3.78;;;1.70;96.20;;;;;;5064383;28;20029;-81
2022/01/29 03:46:45;;;;;;;8.10;4.03;;;1.60;96.40;;;;;;5064399;28;20028;-80
2022/01/29 03:49:42;;;;;;;7.57;3.92;;;1.60;96.40;;;;;;5051601;28;20037;-80
2022/01/29 03:52:15;;;;;;;7.35;4.13;;;1.60;96.60;;;;;;5075985;28;20024;-81
2022/01/29 03:55:36;;;;;;;;;;;;;;;;;;;;;
2022/01/29 04:05:40;;;;;;;7.65;3.13;;;1.80;96.60;;;;;;5070750;28;20056;-80
2022/01/29 04:11:22;;;;;;;8.20;3.47;;;2.00;96.00;;;;;;5057139;28;20043;-79
2022/01/29 04:17:07;;;;;;;5.88;3.60;;;2.00;96.10;;;;;;5047909;28;20501;-82
2022/01/29 04:19:44;;;;;;;6.40;3.63;;;2.10;96.10;;;;;;5048133;28;20029;-80
2022/01/29 04:22:48;;;;;;;5.45;3.40;;;2.10;95.90;;;;;;5045511;28;20021;-81
2022/01/29 04:26:13;;;;;;;10.90;3.50;;;2.20;95.80;;;;;;5057573;28;20021;-81
2022/01/29 04:28:43;;;;;;;4.93;3.17;;;2.20;95.60;;;;;;5052611;28;20055;-81
2022/01/29 04:35:07;;;;;;;10.30;3.22;;;2.10;95.60;;;;;;5034179;28;20036;-80
2022/01/29 04:37:45;;;;;;;7.53;3.58;;;2.20;95.50;;;;;;5063207;28;20451;-81
2022/01/29 04:40:42;;;;;;;8.30;3.47;;;2.20;95.50;;;;;;5045266;28;20047;-82
2022/01/29 04:43:47;;;;;;;6.97;3.45;;;2.20;95.60;;;;;;5044696;28;20021;-82
2022/01/29 04:46:18;;;;;;;5.15;3.00;;;2.30;95.70;;;;;;5003696;28;20650;-81
2022/01/29 04:49:10;;;;;;;9.95;4.15;;;2.30;95.60;;;;;;5045798;28;20024;-81
2022/01/29 04:51:53;;;;;;;6.78;3.33;;;2.30;95.50;;;;;;5054833;28;20025;-81
2022/01/29 04:54:27;;;;;;;;;;;2.30;95.30;;;;;;5047150;28;20393;-81
2022/01/29 04:57:13;;;;;;;7.47;3.33;;;2.30;95.50;;;;;;5064328;28;19931;-80
2022/01/29 04:59:48;;;;;;;5.30;2.42;;;2.20;95.60;;;;;;5046818;28;20505;-82
2022/01/29 05:02:26;;;;;;;5.95;3.70;;;2.20;95.70;;;;;;5047682;28;20580;-82
2022/01/29 05:05:10;;;;;;;6.55;3.88;;;2.20;95.60;;;;;;5072343;28;20059;-81
2022/01/29 05:07:51;;;;;;;7.72;3.58;;;2.30;95.60;;;;;;5073390;28;20029;-82
2022/01/29 05:13:50;;;;;;;10.50;4.07;;;2.20;95.70;;;;;;5044057;28;20038;-81
2022/01/29 05:27:09;;;;;;;4.68;3.03;;;1.90;96.20;;;;;;5043986;28;20037;-80
2022/01/29 05:29:36;;;;;;;8.10;3.90;;;1.80;96.50;;;;;;5042599;28;20021;-80
2022/01/29 05:32:05;;;;;;;7.82;3.53;;;1.80;96.60;;;;;;5031853;28;20029;-80
2022/01/29 05:34:30;;;;;;;6.18;3.17;;;1.80;96.70;;;;;;5045450;28;20039;-80
2022/01/29 05:36:56;;;;;;;10.55;4.57;;;1.80;96.70;;;;;;5027241;28;20458;-80
2022/01/29 05:39:24;;;;;;;4.85;3.17;;;1.80;96.80;;;;;;5042042;28;20049;-80
2022/01/29 05:41:50;;;;;;;6.70;3.15;;;1.80;96.80;;;;;;5025959;28;20072;-80
2022/01/29 05:44:16;;;;;;;5.70;3.67;;;1.80;96.80;;;;;;5027944;28;20021;-81
2022/01/29 05:46:42;;;;;;;6.32;4.53;;;1.80;96.90;;;;;;5055240;23;20044;-82
2022/01/29 05:49:08;;;;;;;7.93;4.28;;;1.80;96.80;;;;;;5043846;28;20017;-82
2022/01/29 05:51:34;;;;;;;8.55;4.43;;;1.80;96.80;;;;;;5027665;28;20252;-82
2022/01/29 05:54:01;;;;;;;6.88;3.80;;;1.90;96.80;;;;;;5026879;28;20033;-82
2022/01/29 05:56:29;;;;;;;9.32;3.47;;;1.90;96.60;;;;;;5044193;28;20079;-81
2022/01/29 05:58:55;;;;;;;7.40;3.70;;;1.90;96.60;;;;;;5024987;28;20025;-81
2022/01/29 06:01:20;;;;;;;8.10;3.70;;;2.00;96.50;;;;;;5028754;28;20077;-82
2022/01/29 06:03:46;;;;;;;6.88;3.05;;;2.00;96.40;;;;;;5053240;28;20053;-80
2022/01/29 06:06:13;;;;;;;6.18;3.60;;;2.00;96.10;;;;;;5052014;28;20024;-81
2022/01/29 06:08:38;;;;;;;5.82;3.78;;;2.10;96.00;;;;;;5035959;28;20056;-80
2022/01/29 06:11:04;;;;;;;6.25;3.38;;;2.10;95.70;;;;;;5035027;28;20017;-82
2022/01/29 06:13:30;;;;;;;8.00;4.00;;;2.20;95.70;;;;;;5035664;28;20026;-80
2022/01/29 06:15:56;;;;;;;5.45;3.25;;;2.20;95.40;;;;;;5030938;28;20632;-82
2022/01/29 06:18:23;;;;;;;4.55;2.67;;;2.30;95.30;;;;;;5050818;28;20096;-79
2022/01/29 06:20:54;;;;;;;5.53;3.10;;;2.30;95.10;;;;;;5037316;28;20030;-80
2022/01/29 06:23:24;;;;;;;6.45;3.28;;;2.40;95.00;;;;;;5049585;28;20032;-79
2022/01/29 06:25:50;;;;;;;5.50;2.70;;;2.40;94.90;;;;;;5050651;28;20025;-80
2022/01/29 06:28:16;;;;;;;4.93;2.78;;;2.40;94.80;;;;;;5035170;28;20016;-81
2022/01/29 06:30:42;;;;;;;4.68;2.72;;;2.50;94.50;;;;;;5034432;28;20085;-80
2022/01/29 06:33:10;;;;;;;4.25;2.58;;;2.50;94.40;;;;;;5031568;28;20021;-78
2022/01/29 06:35:40;;;;;;;5.43;2.65;;;2.50;94.20;;;;;;5044921;28;20026;-80
2022/01/29 06:38:08;;;;;;;5.05;2.63;;;2.60;93.90;;;;;;5046968;28;20021;-80
2022/01/29 06:40:35;;;;;;;4.47;2.65;;;2.60;93.60;;;;;;5045445;28;20053;-79
2022/01/29 06:43:01;;;;;;;4.32;2.13;;;2.60;93.30;;;;;;5042667;28;20036;-79
2022/01/29 06:45:28;;;;;;;4.20;2.33;;;2.60;93.20;;;;;;5026010;28;20030;-78
2022/01/29 06:47:58;;;;;;;4.53;2.60;;;2.60;92.90;;;;;;5023137;28;20010;-79
2022/01/29 06:50:25;;;;;;;3.67;2.35;;;2.70;92.80;;;;;;5012021;28;20018;-80
2022/01/29 06:52:51;;;;;;;5.68;2.42;;;2.70;92.40;;;;;;5031159;28;20018;-79
2022/01/29 06:55:17;;;;;;;4.63;2.28;;;2.70;92.00;;;;;;5027942;28;20453;-81
2022/01/29 06:57:42;;;;;;;2.15;1.70;;;2.80;91.90;;;;;;5026974;28;20044;-79
2022/01/29 07:00:09;;;;;;;3.00;1.85;;;2.80;91.10;;;;;;5026416;28;20037;-80
2022/01/29 07:02:36;;;;;;;4.75;2.17;;;2.90;91.00;;;;;;5013215;28;20033;-80
2022/01/29 07:05:06;;;;;;;4.03;1.88;;;3.00;90.90;;;;;;5045125;28;20041;-80
2022/01/29 07:07:32;;;;;;;4.03;2.00;;;3.00;90.80;;;;;;5025506;28;20425;-79
2022/01/29 07:09:58;;;;;;;5.32;1.85;;;3.00;90.50;;;;;;5043061;28;20025;-79
2022/01/29 07:12:25;;;;;;;3.75;2.03;;;3.10;89.80;;;;;;5040765;28;20036;-81
2022/01/29 07:14:51;;;;;;;1.70;1.20;;;3.20;89.70;;;;;;5045055;28;20049;-82
2022/01/29 07:17:18;;;;;;;2.10;1.67;;;3.20;89.40;;;;;;5031010;28;20100;-84
2022/01/29 07:19:45;;;;;;;2.05;1.58;;;3.20;89.00;;;;;;5021968;28;20029;-81
2022/01/29 07:22:12;;;;;;;2.55;1.80;;;3.30;88.40;;;;;;5015330;28;20025;-82
2022/01/29 07:24:38;;;;;;;4.45;2.10;;;3.30;87.90;;;;;;5007772;28;20124;-83
2022/01/29 07:27:05;;;;;;;4.63;1.85;;;3.40;87.10;;;;;;5024924;28;20030;-83
2022/01/29 07:29:32;;;;;;;2.03;1.48;;;3.40;86.60;;;;;;5036176;28;20049;-82
2022/01/29 07:31:58;;;;;;;4.32;1.60;;;3.40;86.70;;;;;;5044403;28;20100;-80
2022/01/29 07:34:25;;;;;;;3.38;1.58;;;3.50;86.10;;;;;;5045855;28;20029;-81
2022/01/29 07:36:52;;;;;;;3.45;2.10;;;3.50;85.30;;;;;;5048719;28;20068;-80
2022/01/29 07:39:19;;;;;;;3.83;1.50;;;3.50;85.50;;;;;;5046296;28;20168;-80
2022/01/29 07:41:45;;;;;;;2.00;1.67;;;3.60;85.10;;;;;;5047447;28;20067;-80
2022/01/29 07:44:11;;;;;;;3.22;1.60;;;3.60;85.00;;;;;;5021540;28;20038;-79
2022/01/29 07:46:37;;;;;;;6.18;1.85;;;3.70;84.60;;;;;;5021887;28;20030;-79
2022/01/29 07:49:03;;;;;;;2.58;1.98;;;3.70;84.20;;;;;;5041183;28;20044;-79
2022/01/29 07:51:28;;;;;;;3.60;1.20;;;3.80;83.80;;;;;;5028685;28;20032;-80
2022/01/29 07:53:54;;;;;;;2.47;1.55;;;3.90;82.70;;;;;;5002703;28;20030;-79
2022/01/29 07:56:22;;;;;;;2.25;1.48;;;4.00;82.40;;;;;;5018765;28;20042;-79
2022/01/29 07:58:49;;;;;;;2.72;1.73;;;4.00;82.70;;;;;;5001222;28;20738;-79
2022/01/29 08:01:15;;;;;;;3.60;1.50;;;4.10;82.30;;;;;;5043143;28;20030;-81
2022/01/29 08:03:41;;;;;;;2.03;1.45;;;4.20;80.90;;;;;;5041961;28;20034;-80
2022/01/29 08:06:08;;;;;;;2.28;1.17;;;4.30;80.00;;;;;;5040063;28;20033;-80
2022/01/29 08:08:34;;;;;;;3.78;1.60;;;4.30;80.20;;;;;;5039223;28;20021;-80
2022/01/29 08:11:00;;;;;;;4.03;1.70;;;4.40;78.90;;;;;;5021485;28;20056;-80
2022/01/29 08:13:26;;;;;;;4.43;1.33;;;4.40;78.50;;;;;;5041007;28;20056;-80
2022/01/29 08:15:51;;;;;;;2.03;1.35;;;4.40;78.60;;;;;;5040001;28;20022;-80
2022/01/29 08:18:17;;;;;;;3.78;1.67;;;4.30;79.20;;;;;;5039678;28;20029;-80
2022/01/29 08:20:43;;;;;;;2.03;1.42;;;4.30;79.30;;;;;;5047303;28;20034;-79
2022/01/29 08:23:09;;;;;;;1.95;1.55;;;4.30;79.60;;;;;;5016789;28;20046;-80
2022/01/29 08:25:37;;;;;;;2.58;1.58;;;4.30;79.30;;;;;;5019277;28;20089;-80
2022/01/29 08:28:03;;;;;;;1.63;1.35;;;4.30;79.60;;;;;;5018706;28;20080;-79
2022/01/29 08:30:28;;;;;;;3.65;1.27;;;4.30;79.40;;;;;;5024971;28;20079;-79
2022/01/29 08:32:54;;;;;;;3.05;1.40;;;4.40;79.30;;;;;;5038042;28;20029;-80
2022/01/29 08:35:20;;;;;;;3.33;1.50;;;4.40;79.20;;;;;;5038336;28;20061;-79
2022/01/29 08:37:46;;;;;;;3.05;1.48;;;4.40;79.30;;;;;;5037793;28;20026;-79
2022/01/29 08:40:13;;;;;;;4.95;1.83;;;4.50;79.10;;;;;;5021167;28;20163;-80
2022/01/29 08:42:39;;;;;;;5.18;2.10;;;4.50;77.70;;;;;;5037992;28;20049;-80
2022/01/29 08:45:06;;;;;;;1.52;1.10;;;4.60;77.60;;;;;;5039056;28;20039;-80
2022/01/29 08:47:33;;;;;;;3.28;1.83;;;4.60;77.80;;;;;;5038087;28;20029;-80
2022/01/29 08:50:00;;;;;;;3.25;1.05;;;4.80;77.40;;;;;;5031813;28;20022;-80
2022/01/29 08:52:27;;;;;;;2.92;1.88;;;4.90;77.00;;;;;;5038055;28;20032;-80
2022/01/29 08:54:53;;;;;;;2.35;1.40;;;5.00;75.60;;;;;;5042399;28;20101;-79
2022/01/29 08:57:19;;;;;;;3.05;1.58;;;5.10;75.80;;;;;;5049363;28;20533;-79
2022/01/29 08:59:44;;;;;;;2.55;1.67;;;5.20;75.50;;;;;;5045971;28;20009;-79
2022/01/29 09:02:10;;;;;;;2.65;1.63;;;5.30;75.00;;;;;;5049754;28;20534;-80
2022/01/29 09:04:45;;;;;;;2.15;1.23;;;5.30;73.90;;;;;;5032096;28;20049;-81
2022/01/29 09:07:11;;;;;;;2.95;1.40;;;5.40;72.10;;;;;;5048280;28;20025;-80
2022/01/29 09:09:43;;;;;;;4.88;1.50;;;5.40;72.20;;;;;;5047533;28;20068;-79
2022/01/29 09:12:09;;;;;;;2.15;1.55;;;5.40;72.20;;;;;;5043645;28;20037;-80
2022/01/29 09:14:35;;;;;;;2.22;1.15;;;5.50;72.30;;;;;;5044663;28;20036;-80
2022/01/29 09:17:01;;;;;;;2.35;1.33;;;5.60;72.30;;;;;;5026010;28;20466;-79
2022/01/29 09:19:27;;;;;;;2.63;1.50;;;5.70;71.40;;;;;;5025505;28;20053;-82
2022/01/29 09:21:52;;;;;;;2.15;1.20;;;5.80;71.50;;;;;;5037729;28;20026;-81
2022/01/29 09:24:18;;;;;;;1.35;1.17;;;5.80;71.40;;;;;;5043334;28;20030;-80
2022/01/29 09:26:44;;;;;;;4.60;1.73;;;5.80;71.00;;;;;;5044170;28;20025;-79
2022/01/29 09:29:10;;;;;;;1.70;1.33;;;5.80;70.60;;;;;;5045255;28;20037;-80
2022/01/29 09:31:35;;;;;;;2.92;1.23;;;5.80;70.00;;;;;;5046439;28;20017;-81
2022/01/29 09:34:03;;;;;;;3.78;1.48;;;5.80;69.70;;;;;;5050745;28;20131;-81
2022/01/29 09:36:29;;;;;;;1.80;1.20;;;5.80;69.90;;;;;;5048234;28;20044;-80
2022/01/29 09:38:55;;;;;;;6.05;1.50;;;5.90;69.70;;;;;;5046197;28;20022;-81
2022/01/29 09:41:24;;;;;;;1.92;1.02;;;5.90;68.90;;;;;;5046872;28;20033;-81
2022/01/29 09:43:52;;;;;;;1.63;1.00;;;6.00;67.70;;;;;;5025555;28;20537;-81
2022/01/29 09:46:18;;;;;;;4.15;1.48;;;6.00;67.30;;;;;;5044603;28;20037;-79
2022/01/29 09:48:45;;;;;;;1.40;1.17;;;6.00;67.10;;;;;;5047149;28;20026;-81
2022/01/29 09:51:14;;;;;;;2.17;1.20;;;6.00;66.50;;;;;;5037304;28;20034;-81
2022/01/29 09:53:43;;;;;;;4.68;1.10;;;6.00;65.50;;;;;;5033689;28;20010;-81
2022/01/29 09:56:09;;;;;;;2.97;1.17;;;6.00;64.80;;;;;;5025910;28;20022;-80
2022/01/29 09:58:35;;;;;;;3.45;0.85;;;6.00;64.00;;;;;;5031956;28;20017;-80
2022/01/29 10:01:01;;;;;;;0.82;0.60;;;6.10;64.30;;;;;;5043261;28;20028;-80
2022/01/29 10:03:27;;;;;;;2.28;0.85;;;6.10;64.40;;;;;;5046623;28;20022;-80
2022/01/29 10:05:54;;;;;;;5.40;1.10;;;6.10;63.80;;;;;;5048303;28;20038;-80
2022/01/29 10:08:21;;;;;;;0.73;0.57;;;6.20;62.50;;;;;;5048529;28;20021;-80
2022/01/29 10:10:58;;;;;;;3.90;0.73;;;6.20;61.60;;;;;;5034484;28;20021;-80
2022/01/29 10:13:31;;;;;;;2.67;0.70;;;6.20;60.70;;;;;;5051382;28;20017;-80
2022/01/29 10:16:15;;;;;;;1.95;0.77;;;6.20;61.00;;;;;;5051676;28;20025;-80
2022/01/29 10:18:46;;;;;;;0.88;0.85;;;6.20;61.10;;;;;;5051361;28;20037;-80
2022/01/29 10:21:24;;;;;;;1.30;0.90;;;6.20;60.60;;;;;;5042866;28;20417;-80
2022/01/29 10:24:03;;;;;;;2.50;0.70;;;6.30;59.70;;;;;;5035568;28;20081;-80
2022/01/29 10:26:33;;;;;;;3.17;0.95;;;6.30;59.70;;;;;;5011634;28;20029;-81
2022/01/29 10:29:03;;;;;;;3.17;0.70;;;6.30;59.50;;;;;;5013213;28;20097;-81
2022/01/29 10:31:43;;;;;;;3.05;0.90;;;6.30;58.60;;;;;;5045199;28;20017;-81
2022/01/29 10:34:33;;;;;;;2.25;0.60;;;6.30;57.80;;;;;;5049260;28;20040;-80
2022/01/29 10:37:23;;;;;;;4.25;0.70;;;6.40;57.20;;;;;;5045336;28;20359;-80
2022/01/29 10:39:54;;;;;;;0.80;0.73;;;6.40;57.40;;;;;;5044690;28;20033;-81
2022/01/29 10:42:43;;;;;;;0.88;0.70;;;6.30;57.50;;;;;;5041669;28;20049;-80
2022/01/29 10:45:09;;;;;;;0.50;0.40;;;6.40;56.90;;;;;;5035089;28;20060;-80
2022/01/29 10:47:56;;;;;;;2.88;0.88;;;6.50;56.60;;;;;;5045205;28;20071;-78
2022/01/29 10:50:22;;;;;;;1.85;0.57;;;6.50;56.00;;;;;;5045683;28;20105;-79
2022/01/29 10:52:49;;;;;;;1.98;0.70;;;6.50;55.70;;;;;;5041750;28;20021;-80
2022/01/29 10:55:15;;;;;;;3.15;0.88;;;6.50;56.10;;;;;;5045703;28;20045;-80
2022/01/29 10:57:43;;;;;;;2.50;0.70;;;6.60;55.30;;;;;;5044450;28;20056;-80
2022/01/29 11:00:20;;;;;;;0.73;0.60;;;6.70;55.40;;;;;;5045134;28;20049;-79
2022/01/29 11:02:47;;;;;;;1.25;0.68;;;6.70;55.70;;;;;;5045938;28;20436;-80
2022/01/29 11:05:14;;;;;;;1.17;0.60;;;6.80;55.50;;;;;;5044330;28;20033;-81
2022/01/29 11:07:42;;;;;;;1.50;0.93;;;6.90;55.30;;;;;;5027618;28;20055;-80
2022/01/29 11:10:09;;;;;;;1.17;0.60;;;7.00;54.90;;;;;;5027346;28;20025;-80
2022/01/29 11:12:38;;;;;;;1.25;0.60;;;7.10;54.10;;;;;;5047422;28;20021;-80
2022/01/29 11:15:05;;;;;;;1.67;0.98;;;7.20;53.50;;;;;;5052468;28;20013;-80
2022/01/29 11:17:32;;;;;;;1.63;0.60;;;7.30;53.00;;;;;;5051767;28;20026;-80
2022/01/29 11:19:59;;;;;;;2.03;0.60;;;7.40;52.30;;;;;;5029431;28;20481;-80
2022/01/29 11:22:30;;;;;;;7.03;0.57;;;7.50;52.50;;;;;;5040501;28;20445;-81
2022/01/29 11:25:08;;;;;;;1.65;0.68;;;7.50;51.70;;;;;;5027265;28;20036;-81
2022/01/29 11:27:39;;;;;;;0.60;0.60;;;7.50;51.20;;;;;;5022599;28;20022;-81
2022/01/29 11:30:12;;;;;;;1.10;0.63;;;7.60;50.40;;;;;;5023992;28;20014;-80
2022/01/29 11:32:42;;;;;;;1.90;0.70;;;7.60;50.90;;;;;;5026839;28;20025;-81
2022/01/29 11:35:18;;;;;;;1.02;0.57;;;7.80;50.40;;;;;;5026199;28;20033;-81
2022/01/29 11:38:02;;;;;;;1.85;1.00;;;7.80;50.40;;;;;;5021979;28;20037;-80
2022/01/29 11:41:04;;;;;;;1.95;0.65;;;7.90;50.10;;;;;;5023924;28;20029;-80
2022/01/29 11:43:34;;;;;;;1.50;0.60;;;8.00;49.70;;;;;;4947153;29;20087;-80
2022/01/29 11:46:30;;;;;;;0.38;0.35;;;8.00;49.10;;;;;;5012623;28;20050;-81
2022/01/29 11:48:57;;;;;;;1.20;0.52;;;8.20;49.00;;;;;;5056273;22;20043;-82
2022/01/29 11:51:46;;;;;;;1.42;0.85;;;8.30;48.90;;;;;;5032821;28;20029;-80
2022/01/29 11:54:15;;;;;;;3.80;0.77;;;8.60;48.10;;;;;;5036948;28;20021;-79
2022/01/29 11:56:42;;;;;;;1.05;0.50;;;8.60;47.70;;;;;;5035601;28;20489;-80
2022/01/29 11:59:20;;;;;;;1.45;0.52;;;8.70;47.30;;;;;;5055633;28;20086;-82
2022/01/29 12:01:59;;;;;;;1.20;0.55;;;8.60;47.70;;;;;;5058678;28;20086;-81
2022/01/29 12:05:00;;;;;;;1.85;0.93;;;8.60;47.80;;;;;;5053743;28;20025;-79
2022/01/29 12:07:33;;;;;;;3.25;0.82;;;8.60;48.00;;;;;;5056318;28;20030;-80
2022/01/29 12:10:05;;;;;;;1.13;0.60;;;8.60;48.00;;;;;;5059583;28;20021;-79
2022/01/29 12:12:35;;;;;;;4.70;0.60;;;8.70;47.30;;;;;;5041310;28;20032;-79
2022/01/29 12:15:10;;;;;;;1.75;0.80;;;8.70;46.70;;;;;;5040506;28;20082;-79
2022/01/29 12:17:52;;;;;;;0.57;0.50;;;8.80;46.90;;;;;;5038242;28;20481;-81
2022/01/29 12:20:23;;;;;;;1.98;0.80;;;8.90;46.70;;;;;;5036518;28;20033;-81
2022/01/29 12:22:51;;;;;;;3.13;0.50;;;9.10;46.40;;;;;;5051329;28;20032;-80
2022/01/29 12:25:28;;;;;;;1.48;0.85;;;9.30;46.60;;;;;;5039893;28;20029;-79
2022/01/29 12:28:03;;;;;;;1.88;0.75;;;9.60;45.20;;;;;;5044510;28;20036;-83
2022/01/29 12:30:33;;;;;;;2.60;0.80;;;9.80;45.00;;;;;;5052934;28;20018;-82
2022/01/29 12:33:13;;;;;;;1.00;0.85;;;10.00;45.40;;;;;;5034413;28;20017;-81
2022/01/29 12:36:01;;;;;;;1.13;0.60;;;10.10;44.70;;;;;;5051738;28;20081;-83
2022/01/29 12:38:36;;;;;;;0.85;0.70;;;10.10;45.40;;;;;;5051159;28;20032;-80
2022/01/29 12:41:09;;;;;;;1.30;0.75;;;10.10;45.40;;;;;;5052638;28;20060;-82
2022/01/29 12:43:50;;;;;;;3.10;0.85;;;10.20;46.00;;;;;;5035137;28;20056;-80
2022/01/29 12:46:18;;;;;;;0.73;0.65;;;10.30;46.00;;;;;;5033282;28;20026;-78
2022/01/29 12:49:07;;;;;;;1.40;0.80;;;10.40;45.50;;;;;;5061533;28;20082;-80
2022/01/29 12:51:48;;;;;;;1.42;0.77;;;10.40;45.20;;;;;;5071743;28;20013;-82
2022/01/29 12:54:14;;;;;;;2.53;1.10;;;10.40;45.60;;;;;;5069083;28;20013;-81
2022/01/29 12:56:40;;;;;;;1.48;1.00;;;10.30;46.50;;;;;;5046917;28;20033;-80
2022/01/29 12:59:11;;;;;;;2.17;1.27;;;10.30;46.80;;;;;;5059209;28;20021;-78
2022/01/29 13:01:39;;;;;;;2.25;1.10;;;10.20;46.90;;;;;;5037959;28;20439;-78
2022/01/29 13:04:17;;;;;;;1.00;0.80;;;10.10;47.10;;;;;;5056211;28;20025;-82
2022/01/29 13:06:44;;;;;;;1.08;0.85;;;10.00;49.10;;;;;;5056437;28;20075;-80
2022/01/29 13:09:21;;;;;;;4.00;1.10;;;9.80;51.80;;;;;;5035358;28;20131;-78
2022/01/29 13:11:49;;;;;;;1.15;0.70;;;9.60;53.20;;;;;;5056779;28;20024;-81
2022/01/29 13:14:19;;;;;;;1.00;0.93;;;9.50;54.50;;;;;;5055792;28;20021;-78
2022/01/29 13:16:47;;;;;;;2.47;1.17;;;9.40;55.50;;;;;;5055240;28;20029;-81
2022/01/29 13:19:14;;;;;;;3.05;0.90;;;9.20;55.50;;;;;;5055647;28;20428;-80
2022/01/29 13:21:41;;;;;;;1.27;1.05;;;9.10;55.40;;;;;;5055137;28;20497;-79
2022/01/29 13:24:25;;;;;;;1.75;1.15;;;9.10;55.50;;;;;;5054688;28;20497;-76
2022/01/29 13:27:02;;;;;;;2.28;1.13;;;9.20;55.90;;;;;;5053973;28;20144;-78
2022/01/29 13:29:33;;;;;;;1.48;1.20;;;9.30;56.10;;;;;;5059582;28;20029;-80
2022/01/29 13:32:12;;;;;;;0.90;0.83;;;9.30;56.60;;;;;;5075160;28;20016;-81
2022/01/29 13:34:40;;;;;;;3.08;1.48;;;9.30;57.10;;;;;;5064615;28;20026;-79
2022/01/29 13:37:30;;;;;;;0.82;0.82;;;9.30;58.30;;;;;;5055234;28;20048;-78
2022/01/29 13:39:57;;;;;;;3.67;1.30;;;9.30;57.50;;;;;;5037523;28;20412;-78
2022/01/29 13:42:26;;;;;;;1.27;1.05;;;9.30;57.10;;;;;;5054745;28;20021;-79
2022/01/29 13:45:15;;;;;;;1.48;0.93;;;9.30;56.00;;;;;;5039434;28;20112;-82
2022/01/29 13:48:14;;;;;;;1.27;0.85;;;9.20;55.50;;;;;;5060680;28;20528;-79
2022/01/29 13:50:47;;;;;;;2.08;1.00;;;9.20;55.10;;;;;;5012685;28;20033;-81
2022/01/29 13:53:16;;;;;;;1.33;1.00;;;9.30;54.20;;;;;;5058837;28;20049;-79
2022/01/29 13:56:05;;;;;;;1.85;1.10;;;9.20;54.60;;;;;;5060857;28;20021;-78
2022/01/29 13:58:56;;;;;;;1.20;0.90;;;9.20;54.60;;;;;;5060966;28;20036;-81
2022/01/29 14:01:57;;;;;;;1.85;0.95;;;9.10;54.70;;;;;;5078211;28;20028;-82
2022/01/29 14:04:32;;;;;;;2.45;0.98;;;9.10;53.80;;;;;;5066665;28;20028;-82
2022/01/29 14:07:14;;;;;;;1.48;1.23;;;9.10;53.50;;;;;;5064543;28;20052;-82
2022/01/29 14:09:48;;;;;;;1.38;1.27;;;9.10;51.50;;;;;;5064120;28;20029;-82
2022/01/29 14:12:30;;;;;;;3.15;1.48;;;9.20;50.10;;;;;;5067137;28;20031;-82
2022/01/29 14:15:14;;;;;;;1.63;1.30;;;9.10;49.90;;;;;;5067357;28;20075;-82
2022/01/29 14:17:40;;;;;;;3.33;2.25;;;8.90;50.60;;;;;;5061080;28;20025;-83
2022/01/29 14:20:19;;;;;;;1.95;1.80;;;8.90;50.50;;;;;;5062371;28;20374;-82
2022/01/29 14:22:45;;;;;;;2.42;1.70;;;8.90;50.70;;;;;;5055431;28;20029;-82
2022/01/29 14:25:20;;;;;;;1.70;1.42;;;8.80;51.00;;;;;;5044334;28;20025;-82
2022/01/29 14:27:46;;;;;;;2.97;1.55;;;8.80;51.70;;;;;;5061792;28;20017;-82
2022/01/29 14:30:12;;;;;;;3.72;1.40;;;8.70;52.40;;;;;;5062098;28;20089;-82
2022/01/29 14:32:41;;;;;;;1.73;1.52;;;8.60;53.50;;;;;;5048888;28;20013;-82
2022/01/29 14:35:11;;;;;;;2.42;1.30;;;8.50;54.60;;;;;;5082402;28;20455;-83
2022/01/29 14:37:37;;;;;;;3.30;1.52;;;8.40;55.80;;;;;;5062767;28;20032;-83
2022/01/29 14:40:06;;;;;;;2.10;1.25;;;8.30;56.30;;;;;;5081740;28;20050;-81
2022/01/29 14:42:35;;;;;;;2.20;1.50;;;8.20;56.90;;;;;;5061406;28;20050;-83
2022/01/29 14:45:01;;;;;;;1.45;1.10;;;8.20;57.10;;;;;;5043700;28;20024;-82
2022/01/29 14:47:27;;;;;;;4.68;1.30;;;8.30;56.90;;;;;;5061539;28;20047;-83
2022/01/29 14:49:53;;;;;;;1.67;1.50;;;8.30;56.70;;;;;;5061545;28;20577;-83
2022/01/29 14:52:20;;;;;;;3.20;1.40;;;8.20;56.70;;;;;;5062328;28;20048;-82
2022/01/29 14:54:46;;;;;;;4.43;2.15;;;8.10;57.10;;;;;;5063349;28;20032;-83
2022/01/29 14:57:12;;;;;;;3.28;2.30;;;8.10;57.60;;;;;;5044408;28;20025;-83
2022/01/29 14:59:37;;;;;;;4.45;2.38;;;8.00;58.40;;;;;;5063071;28;20028;-82
2022/01/29 15:02:04;;;;;;;3.63;2.03;;;7.90;59.00;;;;;;5045347;28;20496;-81
2022/01/29 15:04:30;;;;;;;3.38;1.80;;;7.80;59.90;;;;;;5062244;28;20144;-84
2022/01/29 15:06:56;;;;;;;3.40;1.88;;;7.70;60.30;;;;;;5067374;28;20021;-85
2022/01/29 15:09:23;;;;;;;3.15;1.95;;;7.60;60.80;;;;;;5059190;28;20087;-82
2022/01/29 15:11:49;;;;;;;3.60;2.17;;;7.60;61.30;;;;;;5082389;28;20021;-83
2022/01/29 15:14:15;;;;;;;3.42;2.35;;;7.50;61.60;;;;;;5049135;28;20025;-83
2022/01/29 15:16:41;;;;;;;3.42;2.20;;;7.50;61.20;;;;;;5083147;28;20024;-83
2022/01/29 15:19:07;;;;;;;5.20;2.90;;;7.40;61.10;;;;;;5071870;28;20470;-82